createdAt,value
2024-05-09T00:00:35.291Z,16.79
2024-05-09T00:03:05.555Z,16.56
2024-05-09T00:05:32.573Z,16.55
2024-05-09T00:07:59.659Z,16.67
2024-05-09T00:10:35.013Z,16.34
2024-05-09T00:13:04.612Z,16.56
2024-05-09T00:15:31.626Z,16.39
2024-05-09T00:17:58.743Z,16.63
2024-05-09T00:20:33.666Z,16.50
2024-05-09T00:23:05.525Z,16.83
2024-05-09T00:25:32.497Z,16.65
2024-05-09T00:27:59.432Z,16.53
2024-05-09T00:30:33.448Z,16.67
2024-05-09T00:33:03.649Z,16.63
2024-05-09T00:35:31.115Z,16.78
2024-05-09T00:37:58.152Z,16.95
2024-05-09T00:40:35.117Z,17.01
2024-05-09T00:43:06.283Z,16.77
2024-05-09T00:45:33.271Z,16.86
2024-05-09T00:48:00.641Z,16.41
2024-05-09T00:50:35.547Z,16.81
2024-05-09T00:53:04.311Z,16.99
2024-05-09T00:55:31.260Z,16.65
2024-05-09T00:57:58.191Z,16.46
2024-05-09T01:00:31.679Z,16.48
2024-05-09T01:03:05.795Z,16.37
2024-05-09T01:05:33.203Z,16.66
2024-05-09T01:08:00.238Z,16.59
2024-05-09T01:10:33.727Z,16.59
2024-05-09T01:13:02.234Z,16.77
2024-05-09T01:15:29.165Z,16.78
2024-05-09T01:17:56.542Z,16.61
2024-05-09T01:20:32.253Z,16.72
2024-05-09T01:23:07.400Z,16.50
2024-05-09T01:25:34.538Z,16.81
2024-05-09T01:28:01.449Z,16.94
2024-05-09T01:30:34.369Z,16.69
2024-05-09T01:33:04.192Z,16.62
2024-05-09T01:35:31.559Z,16.92
2024-05-09T01:37:58.612Z,16.69
2024-05-09T01:40:35.507Z,16.64
2024-05-09T01:43:05.361Z,16.67
2024-05-09T01:45:32.311Z,16.84
2024-05-09T01:47:59.783Z,16.44
2024-05-09T01:50:37.402Z,16.59
2024-05-09T01:53:07.942Z,16.56
2024-05-09T01:55:34.979Z,16.51
2024-05-09T01:58:01.927Z,16.76
2024-05-09T02:00:36.161Z,16.52
2024-05-09T02:03:06.986Z,16.64
2024-05-09T02:05:34.206Z,16.64
2024-05-09T02:08:01.337Z,16.56
2024-05-09T02:10:32.534Z,16.93
2024-05-09T02:13:00.285Z,16.92
2024-05-09T02:15:27.206Z,17.03
2024-05-09T02:17:54.501Z,16.69
2024-05-09T02:22:51.505Z,16.37
2024-05-09T02:25:18.622Z,16.28
2024-05-09T02:27:45.566Z,16.28
2024-05-09T02:30:18.669Z,16.41
2024-05-09T02:32:53.120Z,16.30
2024-05-09T02:35:20.309Z,16.09
2024-05-09T02:37:47.369Z,16.08
2024-05-09T02:40:14.973Z,15.92
2024-05-09T02:42:45.160Z,15.83
2024-05-09T02:45:12.085Z,15.87
2024-05-09T02:47:39.089Z,15.91
2024-05-09T02:50:08.037Z,15.89
2024-05-09T02:52:35.278Z,15.82
2024-05-09T02:55:02.225Z,15.80
2024-05-09T02:57:29.188Z,15.78
2024-05-09T02:59:56.129Z,15.75
2024-05-09T03:02:23.183Z,16.01
2024-05-09T03:04:50.220Z,15.48
2024-05-09T03:07:19.750Z,15.66
2024-05-09T03:09:47.051Z,15.69
2024-05-09T03:12:14.130Z,15.74
2024-05-09T03:14:41.187Z,15.92
2024-05-09T03:17:08.237Z,15.95
2024-05-09T03:19:35.295Z,15.72
2024-05-09T03:22:02.320Z,15.88
2024-05-09T03:24:29.307Z,15.93
2024-05-09T03:26:56.252Z,15.91
2024-05-09T03:29:23.219Z,15.75
2024-05-09T03:31:50.393Z,15.79
2024-05-09T03:34:17.420Z,15.99
2024-05-09T03:36:44.354Z,15.98
2024-05-09T03:39:11.302Z,15.99
2024-05-09T03:41:38.251Z,15.89
2024-05-09T03:44:05.259Z,15.95
2024-05-09T03:46:32.234Z,15.95
2024-05-09T03:48:59.267Z,15.95
2024-05-09T03:51:26.232Z,16.01
2024-05-09T03:53:53.204Z,16.02
2024-05-09T03:56:20.199Z,15.97
2024-05-09T03:58:47.239Z,15.81
2024-05-09T04:01:14.245Z,15.71
2024-05-09T04:03:41.357Z,15.52
2024-05-09T04:06:08.396Z,15.68
2024-05-09T04:08:35.864Z,15.95
2024-05-09T04:11:02.985Z,15.88
2024-05-09T04:13:29.978Z,15.98
2024-05-09T04:15:56.933Z,16.12
2024-05-09T04:18:23.981Z,16.25
2024-05-09T04:20:51.129Z,15.78
2024-05-09T04:23:18.206Z,16.03
2024-05-09T04:25:45.807Z,16.08
2024-05-09T04:28:12.974Z,15.73
2024-05-09T04:30:41.512Z,15.97
2024-05-09T04:33:11.318Z,15.88
2024-05-09T04:35:39.950Z,15.97
2024-05-09T04:38:06.835Z,15.69
2024-05-09T04:40:36.191Z,15.84
2024-05-09T04:43:03.994Z,15.77
2024-05-09T04:45:30.693Z,15.98
2024-05-09T04:47:57.514Z,16.03
2024-05-09T04:50:33.604Z,15.86
2024-05-09T04:53:04.229Z,15.81
2024-05-09T04:55:30.896Z,15.59
2024-05-09T04:57:57.648Z,15.85
2024-05-09T05:00:32.517Z,16.06
2024-05-09T05:03:03.383Z,15.99
2024-05-09T05:05:30.202Z,15.85
2024-05-09T05:07:56.814Z,16.06
2024-05-09T05:10:29.594Z,16.17
2024-05-09T05:13:02.106Z,16.35
2024-05-09T05:15:28.656Z,16.16
2024-05-09T05:17:55.335Z,16.32
2024-05-09T05:20:30.589Z,16.08
2024-05-09T05:22:59.887Z,16.19
2024-05-09T05:25:26.479Z,16.44
2024-05-09T05:27:53.027Z,16.04
2024-05-09T05:30:25.071Z,16.05
2024-05-09T05:32:56.022Z,15.66
2024-05-09T05:35:23.228Z,15.74
2024-05-09T05:37:50.277Z,15.82
2024-05-09T05:40:27.597Z,16.13
2024-05-09T05:43:00.022Z,16.09
2024-05-09T05:45:26.963Z,16.26
2024-05-09T05:47:54.070Z,15.85
2024-05-09T05:50:27.762Z,15.67
2024-05-09T05:53:01.799Z,15.75
2024-05-09T05:55:28.842Z,15.99
2024-05-09T05:57:55.800Z,16.04
2024-05-09T06:00:29.759Z,16.32
2024-05-09T06:03:04.370Z,16.66
2024-05-09T06:05:31.547Z,16.37
2024-05-09T06:07:58.667Z,16.30
2024-05-09T06:10:30.400Z,16.70
2024-05-09T06:13:04.567Z,16.73
2024-05-09T06:15:31.499Z,16.90
2024-05-09T06:17:59.018Z,16.92
2024-05-09T06:20:34.744Z,17.15
2024-05-09T06:23:04.397Z,17.46
2024-05-09T06:25:31.696Z,17.03
2024-05-09T06:27:58.685Z,16.69
2024-05-09T06:30:30.968Z,16.97
2024-05-09T06:33:05.825Z,16.99
2024-05-09T06:35:33.432Z,16.90
2024-05-09T06:38:00.622Z,17.15
2024-05-09T06:40:36.242Z,16.93
2024-05-09T06:43:05.868Z,16.92
2024-05-09T06:45:32.831Z,17.02
2024-05-09T06:48:00.047Z,17.40
2024-05-09T06:50:31.116Z,17.24
2024-05-09T06:53:02.795Z,17.60
2024-05-09T06:55:29.884Z,18.02
2024-05-09T06:57:56.847Z,17.87
2024-05-09T07:00:30.739Z,17.51
2024-05-09T07:03:05.975Z,18.04
2024-05-09T07:05:33.227Z,17.55
2024-05-09T07:08:00.339Z,17.53
2024-05-09T07:10:33.040Z,16.89
2024-05-09T07:13:02.330Z,17.22
2024-05-09T07:15:29.363Z,17.82
2024-05-09T07:17:56.672Z,17.28
2024-05-09T07:20:32.257Z,17.31
2024-05-09T07:23:01.935Z,16.97
2024-05-09T07:25:28.749Z,17.25
2024-05-09T07:27:55.410Z,17.45
2024-05-09T07:30:27.591Z,17.40
2024-05-09T07:32:59.877Z,17.69
2024-05-09T07:35:26.844Z,17.75
2024-05-09T07:37:53.693Z,17.82
2024-05-09T07:42:49.809Z,17.71
2024-05-09T07:45:39.009Z,17.47
2024-05-09T07:52:22.948Z,18.01
2024-05-09T07:53:38.358Z,18.20
2024-05-09T07:56:05.622Z,17.58
2024-05-09T07:58:32.280Z,17.48
2024-05-09T08:00:58.977Z,17.77
2024-05-09T08:03:25.717Z,17.70
2024-05-09T08:05:52.399Z,18.15
2024-05-09T08:08:18.986Z,18.22
2024-05-09T08:10:45.698Z,18.92
2024-05-09T08:13:12.485Z,18.56
2024-05-09T08:15:39.280Z,18.52
2024-05-09T08:18:06.022Z,18.81
2024-05-09T08:20:35.274Z,18.90
2024-05-09T08:23:02.612Z,18.75
2024-05-09T08:25:29.575Z,18.60
2024-05-09T08:27:56.576Z,18.28
2024-05-09T08:30:30.145Z,18.39
2024-05-09T08:33:03.064Z,18.70
2024-05-09T08:35:29.703Z,19.02
2024-05-09T08:37:56.424Z,18.90
2024-05-09T08:40:30.718Z,19.21
2024-05-09T08:43:01.669Z,18.34
2024-05-09T08:45:28.320Z,18.48
2024-05-09T08:47:55.096Z,19.46
2024-05-09T08:50:31.569Z,19.45
2024-05-09T08:53:04.284Z,19.26
2024-05-09T08:55:30.839Z,19.00
2024-05-09T08:57:57.422Z,18.92
2024-05-09T09:00:33.736Z,18.49
2024-05-09T09:03:03.718Z,19.16
2024-05-09T09:05:30.471Z,18.87
2024-05-09T09:07:57.121Z,19.01
2024-05-09T09:10:29.822Z,19.68
2024-05-09T09:12:58.911Z,20.05
2024-05-09T09:15:25.508Z,19.49
2024-05-09T09:17:52.197Z,20.04
2024-05-09T09:20:25.971Z,19.42
2024-05-09T09:22:55.917Z,19.65
2024-05-09T09:25:22.495Z,20.20
2024-05-09T09:27:49.053Z,19.58
2024-05-09T09:30:27.832Z,18.89
2024-05-09T09:33:02.531Z,18.70
2024-05-09T09:35:29.615Z,18.77
2024-05-09T09:37:56.551Z,19.38
2024-05-09T09:40:31.007Z,19.53
2024-05-09T09:42:59.598Z,18.73
2024-05-09T09:45:26.629Z,19.16
2024-05-09T09:47:53.765Z,19.17
2024-05-09T09:50:27.574Z,19.22
2024-05-09T09:53:00.522Z,19.23
2024-05-09T09:55:27.559Z,19.44
2024-05-09T09:57:54.571Z,19.38
2024-05-09T10:00:27.124Z,19.55
2024-05-09T10:02:59.362Z,19.64
2024-05-09T10:05:26.566Z,19.67
2024-05-09T10:07:53.954Z,19.36
2024-05-09T10:10:27.319Z,19.44
2024-05-09T10:12:58.974Z,19.07
2024-05-09T10:15:25.955Z,18.63
2024-05-09T10:17:53.151Z,18.95
2024-05-09T10:20:22.220Z,18.55
2024-05-09T10:22:54.624Z,18.27
2024-05-09T10:25:21.723Z,18.47
2024-05-09T10:27:48.867Z,18.53
2024-05-09T10:30:21.670Z,18.39
2024-05-09T10:32:56.492Z,17.86
2024-05-09T10:35:23.568Z,18.62
2024-05-09T10:37:50.488Z,18.30
2024-05-09T10:40:25.734Z,18.33
2024-05-09T10:42:56.336Z,18.13
2024-05-09T10:45:23.443Z,17.95
2024-05-09T10:47:50.546Z,18.15
2024-05-09T10:50:25.073Z,18.66
2024-05-09T10:52:55.567Z,19.21
2024-05-09T10:55:22.707Z,19.37
2024-05-09T10:57:49.925Z,19.44
2024-05-09T11:00:27.031Z,19.37
2024-05-09T11:02:57.536Z,19.06
2024-05-09T11:05:24.698Z,19.40
2024-05-09T11:07:51.742Z,19.38
2024-05-09T11:10:27.110Z,19.43
2024-05-09T11:12:58.862Z,19.76
2024-05-09T11:15:25.906Z,19.27
2024-05-09T11:17:53.116Z,19.37
2024-05-09T11:20:26.869Z,19.55
2024-05-09T11:22:56.777Z,19.53
2024-05-09T11:25:23.875Z,19.49
2024-05-09T11:27:50.540Z,19.32
2024-05-09T11:30:24.207Z,19.63
2024-05-09T11:32:56.665Z,19.02
2024-05-09T11:35:23.394Z,19.46
2024-05-09T11:37:49.941Z,19.63
2024-05-09T11:40:21.554Z,20.06
2024-05-09T11:42:53.426Z,20.45
2024-05-09T11:45:20.195Z,20.57
2024-05-09T11:47:46.877Z,20.91
2024-05-09T11:50:22.342Z,20.81
2024-05-09T11:52:53.818Z,20.53
2024-05-09T11:55:20.849Z,20.51
2024-05-09T11:57:48.182Z,20.51
2024-05-09T12:00:18.278Z,21.07
2024-05-09T12:02:51.883Z,20.69
2024-05-09T12:05:18.618Z,21.09
2024-05-09T12:07:45.270Z,20.80
2024-05-09T12:10:16.660Z,20.57
2024-05-09T12:12:46.084Z,21.07
2024-05-09T12:15:12.694Z,21.17
2024-05-09T12:17:39.327Z,21.32
2024-05-09T12:20:11.319Z,21.28
2024-05-09T12:22:43.720Z,21.83
2024-05-09T12:25:10.393Z,21.36
2024-05-09T12:27:37.507Z,21.10
2024-05-09T12:30:05.807Z,21.20
2024-05-09T12:32:34.237Z,21.04
2024-05-09T12:35:01.214Z,21.99
2024-05-09T12:37:28.167Z,22.48
2024-05-09T12:39:55.143Z,22.61
2024-05-09T12:42:27.287Z,21.96
2024-05-09T12:44:55.550Z,22.19
2024-05-09T12:47:22.603Z,22.79
2024-05-09T12:49:49.708Z,23.08
2024-05-09T12:52:16.803Z,23.43
2024-05-09T12:54:43.811Z,23.86
2024-05-09T12:57:10.778Z,24.70
2024-05-09T12:59:37.728Z,25.01
2024-05-09T13:02:04.877Z,25.18
2024-05-09T13:04:32.230Z,24.86
2024-05-09T13:06:59.296Z,24.87
2024-05-09T13:09:26.246Z,24.79
2024-05-09T13:11:53.256Z,24.41
2024-05-09T13:14:20.200Z,25.23
2024-05-09T13:16:47.145Z,25.12
2024-05-09T13:19:14.161Z,24.63
2024-05-09T13:21:41.156Z,25.06
2024-05-09T13:24:08.161Z,25.01
2024-05-09T13:26:35.101Z,25.63
2024-05-09T13:29:02.025Z,26.13
2024-05-09T13:31:29.054Z,25.48
2024-05-09T13:33:56.126Z,25.76
2024-05-09T13:36:23.161Z,26.84
2024-05-09T13:38:49.731Z,28.30
2024-05-09T13:41:16.300Z,28.00
2024-05-09T13:43:42.858Z,27.72
2024-05-09T13:46:09.514Z,28.50
2024-05-09T13:48:36.161Z,28.76
2024-05-09T13:51:02.765Z,28.00
2024-05-09T13:53:29.346Z,28.77
2024-05-09T13:55:56.021Z,29.74
2024-05-09T13:58:22.734Z,27.03
2024-05-09T14:00:49.809Z,28.08
2024-05-09T14:03:17.658Z,28.96
2024-05-09T14:05:46.044Z,29.19
2024-05-09T14:08:12.688Z,29.72
2024-05-09T14:10:39.362Z,30.52
2024-05-09T14:13:05.970Z,28.78
2024-05-09T14:15:32.645Z,29.41
2024-05-09T14:17:59.325Z,29.94
2024-05-09T14:20:31.155Z,30.70
2024-05-09T14:22:58.956Z,30.57
2024-05-09T14:25:25.568Z,31.27
2024-05-09T14:27:52.211Z,30.92
2024-05-09T14:30:26.385Z,31.69
2024-05-09T14:33:00.945Z,29.35
2024-05-09T14:35:27.658Z,30.57
2024-05-09T14:37:54.708Z,31.37
2024-05-09T14:40:31.164Z,29.85
2024-05-09T14:43:06.773Z,27.54
2024-05-09T14:45:33.861Z,29.51
2024-05-09T14:48:01.146Z,31.06
2024-05-09T14:50:35.133Z,32.07
2024-05-09T14:53:05.341Z,32.40
2024-05-09T14:55:32.363Z,32.65
2024-05-09T14:57:59.383Z,31.71
2024-05-09T15:00:33.017Z,30.54
2024-05-09T15:03:03.074Z,30.55
2024-05-09T15:05:30.396Z,31.73
2024-05-09T15:07:57.470Z,32.79
2024-05-09T15:10:33.366Z,32.33
2024-05-09T15:13:02.905Z,31.89
2024-05-09T15:15:29.949Z,31.85
2024-05-09T15:17:56.782Z,32.23
2024-05-09T15:20:31.048Z,32.37
2024-05-09T15:23:01.962Z,32.10
2024-05-09T15:25:28.743Z,31.67
2024-05-09T15:27:55.574Z,31.27
2024-05-09T15:30:29.587Z,31.31
2024-05-09T15:32:58.504Z,31.54
2024-05-09T15:35:25.112Z,32.09
2024-05-09T15:37:51.668Z,32.56
2024-05-09T15:40:25.940Z,33.15
2024-05-09T15:43:01.669Z,32.63
2024-05-09T15:45:28.320Z,31.51
2024-05-09T15:47:54.977Z,33.22
2024-05-09T15:50:31.981Z,32.36
2024-05-09T15:53:03.928Z,31.80
2024-05-09T15:55:30.477Z,32.81
2024-05-09T15:57:57.130Z,33.00
2024-05-09T16:00:29.180Z,32.62
2024-05-09T16:03:03.320Z,31.29
2024-05-09T16:05:30.005Z,31.87
2024-05-09T16:07:56.663Z,31.33
2024-05-09T16:10:26.264Z,31.78
2024-05-09T16:12:58.793Z,31.13
2024-05-09T16:15:25.756Z,31.38
2024-05-09T16:17:52.720Z,31.78
2024-05-09T16:20:33.148Z,31.87
2024-05-09T16:23:05.396Z,32.03
2024-05-09T16:25:32.370Z,30.72
2024-05-09T16:27:59.380Z,28.57
2024-05-09T16:30:33.728Z,27.37
2024-05-09T16:33:02.909Z,25.94
2024-05-09T16:35:30.252Z,25.29
2024-05-09T16:37:57.453Z,25.09
2024-05-09T16:40:34.346Z,24.49
2024-05-09T16:43:06.136Z,24.39
2024-05-09T16:45:33.543Z,24.28
2024-05-09T16:48:01.001Z,24.07
2024-05-09T16:50:32.630Z,23.76
2024-05-09T16:53:01.465Z,23.88
2024-05-09T16:55:28.488Z,23.38
2024-05-09T16:57:55.623Z,23.52
2024-05-09T17:00:31.793Z,23.29
2024-05-09T17:03:07.183Z,23.19
2024-05-09T17:05:35.417Z,22.69
2024-05-09T17:08:02.900Z,22.90
2024-05-09T17:10:33.570Z,23.22
2024-05-09T17:13:02.482Z,22.80
2024-05-09T17:15:30.033Z,22.63
2024-05-09T17:17:57.190Z,22.67
2024-05-09T17:20:31.754Z,22.32
2024-05-09T17:23:02.088Z,22.06
2024-05-09T17:25:29.148Z,22.02
2024-05-09T17:27:56.231Z,21.85
2024-05-09T17:30:29.382Z,22.09
2024-05-09T17:33:02.548Z,21.85
2024-05-09T17:35:29.649Z,21.61
2024-05-09T17:37:56.698Z,21.99
2024-05-09T17:40:31.136Z,21.55
2024-05-09T17:43:02.323Z,21.61
2024-05-09T17:45:29.644Z,21.59
2024-05-09T17:47:56.900Z,21.62
2024-05-09T17:50:30.842Z,21.63
2024-05-09T17:53:02.272Z,21.44
2024-05-09T17:55:29.583Z,21.74
2024-05-09T17:57:56.944Z,21.88
2024-05-09T18:00:36.190Z,21.98
2024-05-09T18:03:06.952Z,21.61
2024-05-09T18:05:34.307Z,21.80
2024-05-09T18:08:01.614Z,21.82
2024-05-09T18:10:35.346Z,21.97
2024-05-09T18:13:06.144Z,21.39
2024-05-09T18:15:33.654Z,21.71
2024-05-09T18:18:00.941Z,21.46
2024-05-09T18:20:37.032Z,21.70
2024-05-09T18:23:09.549Z,21.41
2024-05-09T18:25:36.505Z,21.62
2024-05-09T18:28:03.561Z,21.61
2024-05-09T18:30:34.990Z,21.44
2024-05-09T18:33:04.133Z,21.18
2024-05-09T18:35:31.537Z,21.09
2024-05-09T18:37:58.480Z,20.69
2024-05-09T18:40:32.623Z,20.69
2024-05-09T18:43:03.099Z,20.69
2024-05-09T18:45:30.862Z,20.88
2024-05-09T18:47:58.227Z,20.70
2024-05-09T18:50:34.218Z,20.77
2024-05-09T18:53:04.734Z,20.62
2024-05-09T18:55:31.687Z,21.04
2024-05-09T18:57:58.677Z,20.68
2024-05-09T19:00:33.871Z,21.08
2024-05-09T19:03:04.669Z,20.87
2024-05-09T19:05:32.470Z,21.17
2024-05-09T19:07:59.621Z,20.76
2024-05-09T19:10:33.600Z,20.69
2024-05-09T19:13:05.421Z,20.53
2024-05-09T19:15:36.012Z,19.81
2024-05-09T19:18:03.150Z,20.06
2024-05-09T19:20:34.445Z,20.05
2024-05-09T19:23:03.087Z,20.13
2024-05-09T19:25:30.134Z,19.89
2024-05-09T19:27:57.204Z,19.96
2024-05-09T19:30:32.931Z,19.77
2024-05-09T19:33:05.383Z,19.86
2024-05-09T19:35:32.556Z,19.86
2024-05-09T19:37:59.568Z,19.64
2024-05-09T19:40:31.408Z,19.67
2024-05-09T19:43:00.516Z,19.70
2024-05-09T19:45:27.607Z,19.90
2024-05-09T19:47:54.741Z,19.64
2024-05-09T19:50:30.262Z,19.58
2024-05-09T19:53:03.370Z,19.54
2024-05-09T19:55:30.280Z,19.50
2024-05-09T19:57:57.814Z,19.57
2024-05-09T20:00:32.570Z,19.69
2024-05-09T20:03:03.072Z,19.57
2024-05-09T20:05:30.301Z,19.18
2024-05-09T20:07:57.439Z,19.14
2024-05-09T20:10:29.842Z,19.30
2024-05-09T20:12:59.965Z,19.16
2024-05-09T20:15:27.191Z,19.08
2024-05-09T20:17:54.667Z,19.13
2024-05-09T20:20:32.212Z,19.28
2024-05-09T20:23:04.230Z,19.17
2024-05-09T20:25:31.197Z,19.04
2024-05-09T20:27:58.176Z,19.53
2024-05-09T20:30:31.465Z,19.78
2024-05-09T20:33:00.641Z,19.67
2024-05-09T20:35:27.814Z,19.96
2024-05-09T20:37:54.723Z,19.78
2024-05-09T20:40:28.900Z,19.81
2024-05-09T20:43:00.121Z,19.78
2024-05-09T20:45:27.245Z,19.90
2024-05-09T20:47:54.363Z,19.81
2024-05-09T20:50:29.050Z,19.97
2024-05-09T20:53:03.862Z,20.15
2024-05-09T20:55:30.872Z,20.49
2024-05-09T20:57:57.948Z,20.43
2024-05-09T21:00:34.550Z,20.74
2024-05-09T21:03:07.019Z,20.83
2024-05-09T21:05:34.991Z,21.08
2024-05-09T21:08:02.789Z,21.07
2024-05-09T21:10:32.592Z,21.29
2024-05-09T21:13:00.996Z,21.29
2024-05-09T21:15:28.078Z,21.33
2024-05-09T21:17:55.231Z,21.22
2024-05-09T21:20:28.615Z,21.24
2024-05-09T21:22:58.138Z,21.20
2024-05-09T21:25:25.145Z,21.17
2024-05-09T21:27:52.280Z,21.12
2024-05-09T21:30:31.190Z,21.00
2024-05-09T21:33:06.009Z,21.14
2024-05-09T21:35:33.089Z,20.78
2024-05-09T21:38:00.059Z,20.79
2024-05-09T21:40:33.817Z,20.89
2024-05-09T21:43:02.916Z,20.70
2024-05-09T21:45:29.966Z,20.59
2024-05-09T21:47:57.016Z,20.67
2024-05-09T21:50:31.880Z,20.58
2024-05-09T21:53:05.908Z,20.58
2024-05-09T21:55:32.927Z,20.42
2024-05-09T21:57:59.944Z,20.54
2024-05-09T22:00:34.694Z,20.52
2024-05-09T22:03:04.662Z,20.51
2024-05-09T22:05:31.964Z,20.57
2024-05-09T22:07:59.058Z,20.29
2024-05-09T22:10:30.891Z,20.40
2024-05-09T22:13:01.772Z,20.36
2024-05-09T22:15:28.955Z,20.25
2024-05-09T22:17:57.142Z,20.00
2024-05-09T22:20:33.118Z,20.03
2024-05-09T22:23:03.709Z,20.22
2024-05-09T22:25:31.471Z,20.26
2024-05-09T22:27:59.225Z,20.30
2024-05-09T22:30:34.427Z,20.23
2024-05-09T22:33:05.349Z,20.15
2024-05-09T22:35:32.533Z,20.02
2024-05-09T22:37:59.470Z,20.02
2024-05-09T22:40:38.159Z,20.07
2024-05-09T22:43:13.622Z,20.12
2024-05-09T22:45:40.812Z,20.11
2024-05-09T22:48:08.249Z,20.17
2024-05-09T22:50:36.420Z,20.13
2024-05-09T22:53:03.345Z,20.15
2024-05-09T22:55:30.292Z,20.16
2024-05-09T22:57:57.392Z,20.08
2024-05-09T23:02:54.334Z,19.96
2024-05-09T23:05:21.458Z,20.01
2024-05-09T23:07:48.517Z,20.01
2024-05-09T23:10:21.387Z,20.02
2024-05-09T23:12:55.114Z,20.02
2024-05-09T23:15:22.146Z,19.90
2024-05-09T23:17:49.174Z,19.87
2024-05-09T23:20:22.067Z,19.89
2024-05-09T23:22:56.931Z,19.93
2024-05-09T23:25:24.025Z,19.93
2024-05-09T23:27:51.019Z,19.59
2024-05-09T23:30:28.433Z,19.43
2024-05-09T23:33:01.645Z,19.48
2024-05-09T23:35:28.723Z,19.55
2024-05-09T23:37:55.750Z,19.66
2024-05-09T23:40:23.652Z,19.64
2024-05-09T23:42:53.705Z,19.66
2024-05-09T23:45:20.691Z,19.65
2024-05-09T23:47:47.732Z,19.56
2024-05-09T23:50:20.522Z,19.60
2024-05-09T23:52:50.997Z,19.50
2024-05-09T23:55:18.149Z,19.55
2024-05-09T23:57:45.325Z,19.56
